createdAt,value
2019-02-18T02:36:42.790Z,65.99
2019-02-18T02:57:14.806Z,67.05
2019-02-18T03:23:16.735Z,67.93
2019-02-18T03:29:07.016Z,67.98
2019-02-18T03:31:30.630Z,67.76
2019-02-18T03:37:29.789Z,68.20
2019-02-18T03:39:48.582Z,68.21
2019-02-18T03:42:21.793Z,68.74
2019-02-18T04:18:47.505Z,68.71
2019-02-18T05:45:33.314Z,70.08
2019-02-18T06:02:35.597Z,71.01
2019-02-18T06:05:14.401Z,71.01
2019-02-18T06:11:02.585Z,71.19
2019-02-18T06:23:22.238Z,72.51
2019-02-18T07:17:20.687Z,69.38
2019-02-18T07:19:49.199Z,69.48
2019-02-18T07:22:17.684Z,69.33
2019-02-18T07:24:46.200Z,68.98
2019-02-18T07:27:18.079Z,69.03
2019-02-18T07:29:48.195Z,68.54
2019-02-18T07:32:36.115Z,68.15
2019-02-18T07:35:19.372Z,67.77
2019-02-18T07:55:59.158Z,66.11
2019-02-18T07:58:27.645Z,66.12
2019-02-18T08:00:59.069Z,65.76
2019-02-18T08:04:23.043Z,65.10
2019-02-18T08:06:54.152Z,65.28
2019-02-18T08:10:11.663Z,64.35
2019-02-18T08:13:28.184Z,64.29
2019-02-18T08:16:01.710Z,64.37
2019-02-18T08:18:31.295Z,63.42
2019-02-18T08:26:59.889Z,62.86
2019-02-18T08:32:40.380Z,60.07
2019-02-18T08:35:17.716Z,59.71
2019-02-18T08:37:46.184Z,60.56
2019-02-18T08:40:22.381Z,60.41
2019-02-18T08:42:47.723Z,59.23
2019-02-18T08:45:16.231Z,58.02
2019-02-18T08:47:47.579Z,56.32
2019-02-18T08:50:16.198Z,55.04
2019-02-18T08:52:45.019Z,54.70
2019-02-18T08:55:15.373Z,54.37
2019-02-18T08:57:43.900Z,54.06
2019-02-18T09:00:14.985Z,53.13
2019-02-18T09:02:43.472Z,51.78
2019-02-18T09:05:12.190Z,52.07
2019-02-18T09:07:40.630Z,51.00
2019-02-18T09:10:11.648Z,50.98
2019-02-18T09:12:40.158Z,50.37
2019-02-18T09:15:10.536Z,48.57
2019-02-18T09:17:39.067Z,49.51
2019-02-18T09:20:17.160Z,48.81
2019-02-18T09:22:47.851Z,48.87
2019-02-18T09:25:20.939Z,50.25
2019-02-18T09:27:51.248Z,51.19
2019-02-18T09:30:21.735Z,51.66
2019-02-18T09:35:41.372Z,52.40
2019-02-18T09:38:30.763Z,52.86
2019-02-18T09:41:04.085Z,52.63
2019-02-18T09:43:43.418Z,51.83
2019-02-18T09:46:13.887Z,52.58
2019-02-18T09:48:42.388Z,51.40
2019-02-18T09:51:10.899Z,51.46
2019-02-18T09:53:39.386Z,52.06
2019-02-18T09:56:08.680Z,51.46
2019-02-18T09:58:37.215Z,50.42
2019-02-18T10:01:05.732Z,49.90
2019-02-18T10:03:35.073Z,48.34
2019-02-18T10:06:03.736Z,48.38
2019-02-18T10:08:33.533Z,50.29
2019-02-18T10:11:02.044Z,47.90
2019-02-18T10:13:30.536Z,48.57
2019-02-18T10:15:59.841Z,49.19
2019-02-18T10:18:28.356Z,48.99
2019-02-18T10:21:00.781Z,49.67
2019-02-18T10:23:29.277Z,48.08
2019-02-18T10:25:57.886Z,47.81
2019-02-18T10:28:26.381Z,47.50
2019-02-18T10:30:54.910Z,46.94
2019-02-18T10:33:23.437Z,46.96
2019-02-18T10:35:55.361Z,47.82
2019-02-18T10:38:28.889Z,45.74
2019-02-18T10:41:06.623Z,45.71
2019-02-18T10:43:32.673Z,46.24
2019-02-18T10:45:59.343Z,46.40
2019-02-18T10:48:28.009Z,47.45
2019-02-18T10:50:56.887Z,45.58
2019-02-18T10:53:25.466Z,45.75
2019-02-18T10:55:54.998Z,46.63
2019-02-18T10:58:23.542Z,47.58
2019-02-18T11:00:52.813Z,47.41
2019-02-18T11:10:22.616Z,47.65
2019-02-18T11:11:56.502Z,46.50
2019-02-18T11:14:22.709Z,44.76
2019-02-18T11:16:55.648Z,45.23
2019-02-18T11:22:25.159Z,45.74
2019-02-18T11:34:26.510Z,41.78
2019-02-18T11:36:56.731Z,42.86
2019-02-18T11:39:26.585Z,43.56
2019-02-18T11:41:55.173Z,42.16
2019-02-18T11:44:23.663Z,45.49
2019-02-18T11:46:52.197Z,41.93
2019-02-18T11:49:20.693Z,42.90
2019-02-18T11:51:49.216Z,39.32
2019-02-18T11:54:18.100Z,40.42
2019-02-18T11:56:46.618Z,39.02
2019-02-18T11:59:23.992Z,38.48
2019-02-18T12:01:45.366Z,38.56
2019-02-18T12:04:13.870Z,38.20
2019-02-18T12:06:44.564Z,38.92
2019-02-18T12:09:12.615Z,39.10
2019-02-18T12:11:41.151Z,40.70
2019-02-18T12:14:09.644Z,40.07
2019-02-18T12:16:38.163Z,40.38
2019-02-18T12:19:06.928Z,40.53
2019-02-18T12:21:35.424Z,39.33
2019-02-18T12:24:03.944Z,39.57
2019-02-18T12:26:32.779Z,39.34
2019-02-18T12:29:01.351Z,38.64
2019-02-18T12:31:29.892Z,38.42
2019-02-18T12:33:58.410Z,39.00
2019-02-18T12:36:26.907Z,38.99
2019-02-18T12:38:55.433Z,37.76
2019-02-18T12:41:24.307Z,38.47
2019-02-18T12:43:52.812Z,37.84
2019-02-18T12:46:21.315Z,37.16
2019-02-18T12:48:49.834Z,37.70
2019-02-18T12:51:18.328Z,37.48
2019-02-18T12:53:46.843Z,35.91
2019-02-18T12:56:15.341Z,37.05
2019-02-18T12:58:54.293Z,36.77
2019-02-18T13:01:14.540Z,36.33
2019-02-18T13:03:43.064Z,35.52
2019-02-18T13:06:11.562Z,37.26
2019-02-18T13:08:40.095Z,34.91
2019-02-18T13:11:08.665Z,34.23
2019-02-18T13:13:37.189Z,32.58
2019-02-18T13:16:05.746Z,32.37
2019-02-18T13:18:34.462Z,30.74
2019-02-18T13:21:02.957Z,31.87
2019-02-18T13:23:31.473Z,31.59
2019-02-18T13:25:59.965Z,30.53
2019-02-18T13:28:28.500Z,30.40
2019-02-18T13:30:57.000Z,29.18
2019-02-18T13:33:25.528Z,28.73
2019-02-18T13:35:54.197Z,29.03
2019-02-18T13:38:22.719Z,29.95
2019-02-18T13:40:51.196Z,29.75
2019-02-18T13:43:19.714Z,29.98
2019-02-18T13:45:48.207Z,30.11
2019-02-18T13:48:16.735Z,28.37
2019-02-18T13:50:45.504Z,27.33
2019-02-18T13:53:14.024Z,28.25
2019-02-18T13:55:42.588Z,27.72
2019-02-18T13:58:11.181Z,27.04
2019-02-18T14:00:39.680Z,30.47
2019-02-18T14:03:08.207Z,28.17
2019-02-18T14:05:36.698Z,26.09
2019-02-18T14:08:05.297Z,24.46
2019-02-18T14:10:33.854Z,27.37
2019-02-18T14:13:02.378Z,26.00
2019-02-18T14:15:30.879Z,27.17
2019-02-18T14:17:59.392Z,29.38
2019-02-18T14:20:27.884Z,28.43
2019-02-18T14:22:56.691Z,27.27
2019-02-18T14:25:25.186Z,26.04
2019-02-18T14:27:53.712Z,25.29
2019-02-18T14:30:22.474Z,27.90
2019-02-18T14:32:50.994Z,28.29
2019-02-18T14:35:19.493Z,30.53
2019-02-18T14:37:48.733Z,30.92
2019-02-18T14:40:19.227Z,32.08
2019-02-18T14:42:47.825Z,32.87
2019-02-18T14:45:16.726Z,30.96
2019-02-18T14:47:45.319Z,28.58
2019-02-18T14:50:16.892Z,27.02
2019-02-18T14:52:46.001Z,26.45
2019-02-18T14:55:14.771Z,25.45
2019-02-18T14:57:43.267Z,26.73
2019-02-18T15:00:18.841Z,27.21
2019-02-18T15:02:47.342Z,27.79
2019-02-18T15:05:16.376Z,27.87
2019-02-18T15:07:45.210Z,30.50
2019-02-18T15:10:15.178Z,35.04
2019-02-18T15:12:43.745Z,38.24
2019-02-18T15:15:12.335Z,39.68
2019-02-18T15:17:40.816Z,41.60
2019-02-18T15:20:11.439Z,42.22
2019-02-18T15:22:39.821Z,42.55
2019-02-18T15:25:09.673Z,43.70
2019-02-18T15:27:38.178Z,43.65
2019-02-18T15:30:12.540Z,44.65
2019-02-18T15:32:41.102Z,45.89
2019-02-18T15:35:09.761Z,45.29
2019-02-18T15:37:38.394Z,46.55
2019-02-18T15:40:11.641Z,45.88
2019-02-18T15:42:42.528Z,46.88
2019-02-18T15:45:10.959Z,46.67
2019-02-18T15:47:39.588Z,46.49
2019-02-18T15:50:12.909Z,47.72
2019-02-18T15:52:41.406Z,48.13
2019-02-18T15:55:10.955Z,49.63
2019-02-18T15:57:39.438Z,49.65
2019-02-18T16:00:25.477Z,50.03
2019-02-18T16:02:53.973Z,50.62
2019-02-18T16:05:22.490Z,51.78
2019-02-18T16:07:50.986Z,55.00
2019-02-18T16:10:19.515Z,56.53
2019-02-18T16:12:50.808Z,56.78
2019-02-18T16:15:18.453Z,59.47
2019-02-18T16:17:48.630Z,60.28
2019-02-18T16:20:17.147Z,61.68
2019-02-18T16:22:45.641Z,61.57
2019-02-18T16:25:24.508Z,62.12
2019-02-18T16:27:52.993Z,62.10
2019-02-18T16:30:21.889Z,64.14
2019-02-18T16:32:50.381Z,63.06
2019-02-18T16:35:18.894Z,63.13
2019-02-18T16:37:48.914Z,63.07
2019-02-18T16:40:18.366Z,59.12
2019-02-18T16:42:46.876Z,56.58
2019-02-18T16:45:15.746Z,56.16
2019-02-18T16:47:44.313Z,53.35
2019-02-18T16:50:12.968Z,52.46
2019-02-18T16:52:41.461Z,53.10
2019-02-18T16:55:12.115Z,52.13
2019-02-18T16:57:40.604Z,53.29
2019-02-18T17:00:17.025Z,52.49
2019-02-18T17:02:45.507Z,52.34
2019-02-18T17:05:14.013Z,53.22
2019-02-18T17:07:42.504Z,54.02
2019-02-18T17:10:11.016Z,56.39
2019-02-18T17:12:39.499Z,57.21
2019-02-18T17:15:10.638Z,58.18
2019-02-18T17:17:39.137Z,56.15
2019-02-18T17:20:08.300Z,55.72
2019-02-18T17:22:36.784Z,56.62
2019-02-18T17:25:08.141Z,56.68
2019-02-18T17:27:36.624Z,57.00
2019-02-18T17:30:13.274Z,56.94
2019-02-18T17:32:41.838Z,56.51
2019-02-18T17:35:12.225Z,57.01
2019-02-18T17:37:40.844Z,56.27
2019-02-18T17:40:11.483Z,56.74
2019-02-18T17:42:40.372Z,57.02
2019-02-18T17:45:18.287Z,57.37
2019-02-18T17:47:46.801Z,56.74
2019-02-18T17:50:16.212Z,56.89
2019-02-18T17:52:44.974Z,56.71
2019-02-18T17:55:17.540Z,57.14
2019-02-18T17:57:46.027Z,57.29
2019-02-18T18:00:17.168Z,57.48
2019-02-18T18:02:45.664Z,57.80
2019-02-18T18:05:14.384Z,58.53
2019-02-18T18:07:42.874Z,57.86
2019-02-18T18:10:12.707Z,58.65
2019-02-18T18:12:41.187Z,58.68
2019-02-18T18:15:11.741Z,58.85
2019-02-18T18:17:40.533Z,59.30
2019-02-18T18:20:11.303Z,60.06
2019-02-18T18:22:39.858Z,60.32
2019-02-18T18:25:10.964Z,60.38
2019-02-18T18:27:39.456Z,60.52
2019-02-18T18:30:14.048Z,60.92
2019-02-18T18:32:42.611Z,61.00
2019-02-18T18:35:12.660Z,61.17
2019-02-18T18:37:41.220Z,61.38
2019-02-18T18:40:12.794Z,61.42
2019-02-18T18:42:41.279Z,61.01
2019-02-18T18:45:12.128Z,61.36
2019-02-18T18:47:40.615Z,61.66
2019-02-18T18:50:18.148Z,62.62
2019-02-18T18:52:46.927Z,62.68
2019-02-18T18:55:15.532Z,62.39
2019-02-18T18:57:44.082Z,62.00
2019-02-18T19:00:19.501Z,62.70
2019-02-18T19:02:47.983Z,63.22
2019-02-18T19:05:16.513Z,62.92
2019-02-18T19:07:44.998Z,62.97
2019-02-18T19:10:14.246Z,63.81
2019-02-18T19:12:42.738Z,64.18
2019-02-18T19:15:16.051Z,63.93
2019-02-18T19:17:44.610Z,64.55
2019-02-18T19:20:13.543Z,64.78
2019-02-18T19:22:42.037Z,64.73
2019-02-18T19:25:11.995Z,64.98
2019-02-18T19:27:40.562Z,64.69
2019-02-18T19:30:14.663Z,63.59
2019-02-18T19:32:43.165Z,64.00
2019-02-18T19:35:11.693Z,64.55
2019-02-18T19:37:40.181Z,64.58
2019-02-18T19:40:11.240Z,64.45
2019-02-18T19:42:39.730Z,65.09
2019-02-18T19:45:22.138Z,64.89
2019-02-18T19:47:50.633Z,64.62
2019-02-18T19:50:19.315Z,64.41
2019-02-18T19:52:47.872Z,64.76
2019-02-18T19:55:16.630Z,65.75
2019-02-18T19:57:45.118Z,65.79
2019-02-18T20:00:18.631Z,65.77
2019-02-18T20:02:47.175Z,65.79
2019-02-18T20:05:15.837Z,65.33
2019-02-18T20:07:44.445Z,64.41
2019-02-18T20:10:13.237Z,64.40
2019-02-18T20:12:41.755Z,64.10
2019-02-18T20:15:14.461Z,64.61
2019-02-18T20:17:43.048Z,65.08
2019-02-18T20:20:13.385Z,66.12
2019-02-18T20:22:41.906Z,66.36
2019-02-18T20:25:10.526Z,65.60
2019-02-18T20:27:39.071Z,65.89
2019-02-18T20:30:16.027Z,64.62
2019-02-18T20:32:45.452Z,64.38
2019-02-18T20:35:14.084Z,63.27
2019-02-18T20:37:42.631Z,62.89
2019-02-18T20:40:12.719Z,62.73
2019-02-18T20:42:41.609Z,62.51
2019-02-18T20:45:11.834Z,62.45
2019-02-18T20:47:40.338Z,61.85
2019-02-18T20:50:12.776Z,61.74
2019-02-18T20:52:41.545Z,62.37
2019-02-18T20:55:12.085Z,62.53
2019-02-18T20:57:40.617Z,62.91
2019-02-18T21:00:15.810Z,62.25
2019-02-18T21:02:44.495Z,61.32
2019-02-18T21:05:12.980Z,61.02
2019-02-18T21:07:43.872Z,61.09
2019-02-18T21:10:15.236Z,61.25
2019-02-18T21:12:43.817Z,61.07
2019-02-18T21:15:12.528Z,61.44
2019-02-18T21:17:41.080Z,62.04
2019-02-18T21:20:11.638Z,62.02
2019-02-18T21:22:40.152Z,61.79
2019-02-18T21:25:10.775Z,62.46
2019-02-18T21:27:39.347Z,62.64
2019-02-18T21:30:11.115Z,63.07
2019-02-18T21:32:40.067Z,63.32
2019-02-18T21:35:08.716Z,64.11
2019-02-18T21:37:37.313Z,64.48
2019-02-18T21:40:08.720Z,64.78
2019-02-18T21:42:37.262Z,65.22
2019-02-18T21:45:08.959Z,65.59
2019-02-18T21:47:37.575Z,66.40
2019-02-18T21:50:07.758Z,66.65
2019-02-18T21:52:36.542Z,66.69
2019-02-18T21:55:06.183Z,66.33
2019-02-18T21:57:34.712Z,66.21
2019-02-18T22:00:04.455Z,66.10
2019-02-18T22:02:32.983Z,66.32
2019-02-18T22:05:01.529Z,65.69
2019-02-18T22:07:30.421Z,65.16
2019-02-18T22:09:58.922Z,65.51
2019-02-18T22:12:27.459Z,66.30
2019-02-18T22:14:56.516Z,66.63
2019-02-18T22:17:25.029Z,66.82
2019-02-18T22:19:53.521Z,66.66
2019-02-18T22:22:22.034Z,66.84
2019-02-18T22:24:50.901Z,66.87
2019-02-18T22:27:19.423Z,66.62
2019-02-18T22:29:47.909Z,66.82
2019-02-18T22:32:16.428Z,66.43
2019-02-18T22:34:44.917Z,66.30
2019-02-18T22:37:13.426Z,66.75
2019-02-18T22:39:41.928Z,67.13
2019-02-18T22:42:10.819Z,67.78
2019-02-18T22:44:41.893Z,68.16
2019-02-18T22:47:09.549Z,68.66
2019-02-18T22:49:38.046Z,68.91
2019-02-18T22:52:06.562Z,68.98
2019-02-18T22:54:35.053Z,68.87
2019-02-18T22:57:03.564Z,68.74
2019-02-18T22:59:32.328Z,68.60
2019-02-18T23:02:00.843Z,68.36
2019-02-18T23:04:29.329Z,67.83
2019-02-18T23:06:57.846Z,67.77
2019-02-18T23:09:26.337Z,68.23
2019-02-18T23:11:54.844Z,67.94
2019-02-18T23:14:23.343Z,68.13
2019-02-18T23:16:51.859Z,68.20
2019-02-18T23:19:20.344Z,68.50
2019-02-18T23:21:48.857Z,69.14
2019-02-18T23:24:17.355Z,69.09
2019-02-18T23:26:45.833Z,68.95
2019-02-18T23:29:14.346Z,69.29
2019-02-18T23:31:43.112Z,69.45
2019-02-18T23:34:11.634Z,69.48
2019-02-18T23:36:40.122Z,69.73
2019-02-18T23:39:08.774Z,69.90
2019-02-18T23:41:37.258Z,69.94
2019-02-18T23:44:05.773Z,70.35
2019-02-18T23:46:34.268Z,70.71
2019-02-18T23:49:02.776Z,71.03
2019-02-18T23:51:31.274Z,71.28
2019-02-18T23:53:59.787Z,71.32
2019-02-18T23:56:28.276Z,71.54
2019-02-18T23:58:56.808Z,71.45
